Flight Track Log - Related Links

Times and Time Zones

All times are in EDT time to prevent confusion due to time zone crossing. See the DAL268 flight status page for this flight to view local times or setup timezone preferences in your user account.

Time Position Orientation Groundspeed Altitude Reporting Facility
EDT Latitude Longitude Course Direction KTS MPH feet Rate Location/Type
Tue 02:39:35 PM 37.6130 -122.3790 North 19 22  Level FlightAware ADS-B
Tue 02:41:08 PM 37.6130 -122.3750 90° East 33 38 Level FlightAware ADS-B
Tue 02:41:30 PM 37.6140 -122.3740 38° Northeast 32 37 Level FlightAware ADS-B
Tue 02:41:43 PM 37.6150 -122.3740 360° North 31 36 Level FlightAware ADS-B
Tue 02:46:46 PM 37.6140 -122.3680 111° Southeast 10 12 Level FlightAware ADS-B
Tue 02:48:24 PM 37.6130 -122.3670 142° Southeast 10 12 12 Level FlightAware ADS-B
Tue 02:48:46 PM 37.6130 -122.3660 90° East 2 2 13 Level FlightAware ADS-B
Tue 02:54:00 PM 37.7429 -122.1808 58° Northeast  Level FlightAware Approximate
Tue 03:02:22 PM 37.6130 -122.3580 24° Northeast 17 20  Level FlightAware ADS-B
Tue 03:02:49 PM 37.6130 -122.3570 90° East 25 29 135 Level FlightAware ADS-B
Tue 03:03:20 PM 37.6150 -122.3610 302° West 61 70 194 Level FlightAware ADS-B
Tue 03:03:51 PM 37.6247 -122.3840 297° West 160 184 200 811 Climbing FlightAware ADS-B
Tue 03:03:57 PM 37.6272 -122.3890 302° West 161 185 500 3,000 Climbing FlightAware ADS-B
Tue 03:04:01 PM 37.6291 -122.3910 320° Northwest 161 185 700 3,000 Climbing FlightAware ADS-B
Tue 03:04:05 PM 37.6314 -122.3940 314° West 162 186 900 3,429 Climbing FlightAware ADS-B
Tue 03:04:08 PM 37.6337 -122.3950 341° North 163 188 1,100 3,000 Climbing FlightAware ADS-B
Tue 03:04:13 PM 37.6375 -122.3970 337° Northwest 166 191 1,300 2,250 Climbing FlightAware ADS-B
Tue 03:04:16 PM 37.6398 -122.3970 360° North 168 193 1,400 2,500 Climbing FlightAware ADS-B
Tue 03:04:25 PM 37.6463 -122.3960 North 173 199 1,800 3,000 Climbing FlightAware ADS-B
Tue 03:04:28 PM 37.6490 -122.3950 16° North 177 204 2,000 2,571 Climbing FlightAware ADS-B
Tue 03:04:32 PM 37.6519 -122.3930 29° Northeast 183 211 2,100 1,636 Climbing FlightAware ADS-B
Tue 03:04:39 PM 37.6565 -122.3870 46° Northeast 192 221 2,300 2,182 Climbing FlightAware ADS-B
Tue 03:04:43 PM 37.6583 -122.3840 53° Northeast 194 223 2,500 3,176 Climbing FlightAware ADS-B
Tue 03:04:56 PM 37.6647 -122.3710 58° Northeast 197 227 3,200 2,571 Climbing FlightAware ADS-B
Tue 03:05:11 PM 37.6708 -122.3560 63° Northeast 203 234 3,700 1,600 Climbing FlightAware ADS-B
Tue 03:05:26 PM 37.6783 -122.3390 61° Northeast 223 257 4,000 1,371 Climbing FlightAware ADS-B
Tue 03:05:46 PM 37.6886 -122.3140 62° Northeast 248 285 4,500 1,857 Climbing FlightAware ADS-B
Tue 03:06:08 PM 37.7008 -122.2840 63° Northeast 267 307 5,300 2,053 Climbing FlightAware ADS-B
Tue 03:06:24 PM 37.7101 -122.2610 63° Northeast 283 326 5,800 2,833 Climbing FlightAware ADS-B
Tue 03:06:44 PM 37.7223 -122.2320 62° Northeast 283 326 7,000 3,429 Climbing FlightAware ADS-B
Tue 03:06:52 PM 37.7271 -122.2190 65° Northeast 284 327 7,400 2,444 Climbing FlightAware ADS-B
Tue 03:07:11 PM 37.7363 -122.1890 69° East 299 344 8,100 2,471 Climbing FlightAware ADS-B
Tue 03:07:26 PM 37.7433 -122.1640 70° East 303 349 8,800 2,813 Climbing FlightAware ADS-B
Tue 03:07:43 PM 37.7514 -122.1350 71° East 304 350 9,600 2,170 Climbing FlightAware ADS-B
Tue 03:08:13 PM 37.7667 -122.0840 69° East 324 373 10,500 1,475 Climbing FlightAware ADS-B
Tue 03:08:44 PM 37.7837 -122.0260 70° East 363 418 11,100 1,161 Climbing FlightAware ADS-B
Tue 03:09:15 PM 37.8024 -121.9610 70° East 393 452 11,700 1,574 Climbing FlightAware ADS-B
Tue 03:09:45 PM 37.8216 -121.8940 70° East 407 468 12,700 2,200 Climbing FlightAware ADS-B
Tue 03:10:15 PM 37.8412 -121.8260 70° East 416 479 13,900 2,000 Climbing FlightAware ADS-B
Tue 03:10:45 PM 37.8614 -121.7560 70° East 431 496 14,700 1,967 Climbing FlightAware ADS-B
Tue 03:11:16 PM 37.8824 -121.6830 70° East 438 504 15,900 2,229 Climbing FlightAware ADS-B
Tue 03:11:20 PM 37.8853 -121.6710 73° East 439 505 16,000 1,714 Climbing FlightAware ADS-B
Tue 03:11:51 PM 37.9003 -121.5960 76° East 448 516 16,900 1,935 Climbing FlightAware ADS-B
Tue 03:12:22 PM 37.9152 -121.5150 77° East 455 524 18,000 1,975 Climbing FlightAware ADS-B
Tue 03:13:10 PM 37.9400 -121.3890 76° East 461 531 19,500 1,807 Climbing FlightAware ADS-B
Tue 03:13:45 PM 37.9590 -121.2960 75° East 474 545 20,500 1,724 Climbing FlightAware ADS-B
Tue 03:14:37 PM 37.9870 -121.1570 76° East 484 557 22,000 1,537 Climbing FlightAware ADS-B
Tue 03:15:07 PM 38.0020 -121.0840 75° East 491 565 22,600 1,500 Climbing FlightAware ADS-B
Tue 03:15:49 PM 38.0270 -120.9590 76° East 498 573 23,800 1,500 Climbing FlightAware ADS-B
Tue 03:16:27 PM 38.0460 -120.8560 77° East 505 581 24,600 1,216 Climbing FlightAware ADS-B
Tue 03:17:03 PM 38.0660 -120.7500 76° East 513 590 25,300 1,263 Climbing FlightAware ADS-B
Tue 03:17:43 PM 38.0890 -120.6310 76° East 521 600 26,200 1,297 Climbing FlightAware ADS-B
Tue 03:18:17 PM 38.1060 -120.5350 77° East 525 604 26,900 1,459 Climbing FlightAware ADS-B
Tue 03:18:57 PM 38.1300 -120.4070 77° East 526 605 28,000 1,952 Climbing FlightAware ADS-B
Tue 03:19:40 PM 38.1540 -120.2760 77° East 512 589 29,600 1,406 Climbing FlightAware ADS-B
Tue 03:21:05 PM 38.2010 -120.0220 77° East 527 606 31,000 960 Climbing FlightAware ADS-B
Tue 03:21:45 PM 38.2220 -119.9030 77° East 532 612 31,600 1,275 Climbing FlightAware ADS-B
Tue 03:22:25 PM 38.2440 -119.7800 77° East 524 603 32,700 1,500 Climbing FlightAware ADS-B
Tue 03:23:09 PM 38.2680 -119.6490 77° East 519 597 33,700 1,271 Climbing FlightAware ADS-B
Tue 03:23:50 PM 38.2890 -119.5310 77° East 517 595 34,500 1,256 Climbing FlightAware ADS-B
Tue 03:24:35 PM 38.3130 -119.3930 77° East 514 592 35,500 847 Climbing FlightAware ADS-B
Tue 03:25:15 PM 38.3340 -119.2750 77° East 520 598 35,700 200 Climbing FlightAware ADS-B
Tue 03:26:05 PM 38.3420 -119.2280 78° East 524 603 35,800 867 Climbing FlightAware ADS-B
Tue 03:26:45 PM 38.3800 -119.0040 78° East 520 598 37,000 857 Climbing FlightAware ADS-B
Tue 03:27:29 PM 38.4030 -118.8750 77° East 516 594 37,000  Level FlightAware ADS-B
Tue 03:28:05 PM 38.4200 -118.7710 78° East 515 593 37,000  Level FlightAware ADS-B
Tue 03:28:43 PM 38.4400 -118.6550 78° East 514 592 37,000  Level FlightAware ADS-B
Tue 03:29:39 PM 38.4680 -118.4880 78° East 516 594 37,000  Level FlightAware ADS-B
Tue 03:30:15 PM 38.4860 -118.3800 78° East 519 597 37,000  Level FlightAware ADS-B
Tue 03:31:05 PM 38.5100 -118.2320 78° East 518 596 37,000  Level FlightAware ADS-B
Tue 03:31:45 PM 38.5300 -118.1110 78° East 516 594 37,000  Level FlightAware ADS-B
Tue 03:32:30 PM 38.5510 -117.9830 78° East 515 593 37,000  Level FlightAware ADS-B
Tue 03:33:08 PM 38.5670 -117.8870 78° East 515 593 37,000  Level FlightAware ADS-B
Tue 03:34:09 PM 38.5930 -117.7320 78° East 515 593 37,000  Level FlightAware ADS-B
Tue 03:34:34 PM 38.6030 -117.6690 78° East 515 593 37,000  Level FlightAware ADS-B
Tue 03:35:22 PM 38.6230 -117.5470 78° East 515 593 37,000  Level FlightAware ADS-B
Tue 03:36:21 PM 38.6480 -117.3970 78° East 515 593 37,000  Level FlightAware ADS-B
Tue 03:36:58 PM 38.6640 -117.3030 78° East 515 593 37,000  Level FlightAware ADS-B
Tue 03:37:32 PM 38.6780 -117.2170 78° East 515 593 37,000  Level FlightAware ADS-B
Tue 03:38:08 PM 38.6930 -117.1260 78° East 515 593 37,000  Level FlightAware ADS-B
Tue 03:38:57 PM 38.7140 -117.0010 78° East 515 593 37,000  Level FlightAware ADS-B
Tue 03:39:33 PM 38.7290 -116.9100 78° East 515 593 37,000  Level FlightAware ADS-B
Tue 03:40:19 PM 38.7480 -116.7930 78° East 515 593 37,000  Level FlightAware ADS-B
Tue 03:40:55 PM 38.7630 -116.7020 78° East 515 593 37,000  Level FlightAware ADS-B
Tue 03:41:36 PM 38.7810 -116.5980 77° East 515 593 37,000  Level FlightAware ADS-B
Tue 03:42:24 PM 38.8010 -116.4760 78° East 515 593 37,000  Level FlightAware ADS-B
Tue 03:42:55 PM 38.8369 -116.1147 78° East 522 601 37,000  Level Salt Lake Center
Tue 03:43:57 PM 38.8631 -115.9328 80° East 519 597 37,000  Level Salt Lake Center
Tue 03:44:58 PM 38.8894 -115.7494 79° East 522 601 37,000  Level Salt Lake Center
Tue 03:46:00 PM 38.9150 -115.5653 80° East 523 602 37,000  Level Salt Lake Center
Tue 03:47:02 PM 38.9417 -115.3747 80° East 518 596 37,000  Level Salt Lake Center
Tue 03:48:04 PM 38.9686 -115.1917 79° East 525 604 37,000  Level Salt Lake Center
Tue 03:49:06 PM 38.9925 -115.0106 80° East 518 596 37,000  Level Salt Lake Center
Tue 03:50:08 PM 39.0214 -114.7958 80° East 511 588 37,000  Level Salt Lake Center
Tue 03:51:10 PM 39.0456 -114.6158 80° East 511 588 37,000  Level Salt Lake Center
Tue 03:52:11 PM 39.0683 -114.4386 81° East 504 580 37,000  Level Salt Lake Center
Tue 03:53:13 PM 39.0917 -114.2600 80° East 505 581 37,000  Level Salt Lake Center
Tue 03:54:15 PM 39.1150 -114.0803 80° East 508 585 37,000  Level Salt Lake Center
Tue 03:55:17 PM 39.1378 -113.8981 81° East 513 590 37,000  Level Salt Lake Center
Tue 03:56:18 PM 39.1600 -113.7175 81° East 512 589 37,000  Level Salt Lake Center
Tue 03:57:20 PM 39.1819 -113.5361 81° East 511 588 37,000  Level Salt Lake Center
Tue 03:58:22 PM 39.2086 -113.3169 81° East 514 592 37,000  Level Salt Lake Center
Tue 03:59:24 PM 39.2297 -113.1358 81° East 512 589 37,000  Level Salt Lake Center
Tue 04:00:26 PM 39.2517 -112.9519 81° East 516 594 37,000  Level Salt Lake Center
Tue 04:01:27 PM 39.2725 -112.7711 81° East 512 589 37,000  Level Salt Lake Center
Tue 04:02:29 PM 39.2936 -112.5914 81° East 509 586 37,000  Level Salt Lake Center
Tue 04:03:31 PM 39.3406 -112.4197 70° East 514 592 37,000  Level Salt Lake Center
Tue 04:09:34 PM 39.7040 -111.4000 70° East 499 574 37,000  Level FlightAware ADS-B
Tue 04:10:13 PM 39.7440 -111.2880 65° Northeast 497 572 37,000  Level FlightAware ADS-B
Tue 04:10:54 PM 39.7800 -111.1880 65° Northeast 496 571 37,000  Level FlightAware ADS-B
Tue 04:11:39 PM 39.8250 -111.0610 65° Northeast 494 568 37,000  Level FlightAware ADS-B
Tue 04:12:22 PM 39.8680 -110.9380 65° Northeast 495 570 37,000  Level FlightAware ADS-B
Tue 04:12:59 PM 39.9010 -110.8440 65° Northeast 494 568 37,000  Level FlightAware ADS-B
Tue 04:13:43 PM 39.9440 -110.7210 65° Northeast 494 568 37,000  Level FlightAware ADS-B
Tue 04:14:27 PM 39.9860 -110.6010 65° Northeast 492 566 37,000  Level FlightAware ADS-B
Tue 04:15:05 PM 40.0220 -110.4980 65° Northeast 493 567 37,000  Level FlightAware ADS-B
Tue 04:15:50 PM 40.0620 -110.3800 66° East 491 565 37,000  Level FlightAware ADS-B
Tue 04:16:31 PM 40.1020 -110.2650 66° East 492 566 37,000  Level FlightAware ADS-B
Tue 04:17:11 PM 40.1360 -110.1650 66° East 492 566 37,000  Level FlightAware ADS-B
Tue 04:17:56 PM 40.1800 -110.0410 65° Northeast 490 564 37,000  Level FlightAware ADS-B
Tue 04:18:40 PM 40.2230 -109.9180 65° Northeast 491 565 37,000  Level FlightAware ADS-B
Tue 04:19:23 PM 40.2630 -109.8030 65° Northeast 490 564 37,000  Level FlightAware ADS-B
Tue 04:20:03 PM 40.2990 -109.6980 66° East 487 560 37,000  Level FlightAware ADS-B
Tue 04:20:43 PM 40.3370 -109.5880 66° East 486 559 37,000  Level FlightAware ADS-B
Tue 04:21:28 PM 40.3800 -109.4650 65° Northeast 485 558 37,000  Level FlightAware ADS-B
Tue 04:22:12 PM 40.4210 -109.3470 65° Northeast 484 557 37,000  Level FlightAware ADS-B
Tue 04:22:54 PM 40.4600 -109.2370 65° Northeast 483 556 37,000  Level FlightAware ADS-B
Tue 04:23:36 PM 40.4990 -109.1240 66° East 483 556 37,000  Level FlightAware ADS-B
Tue 04:24:12 PM 40.5330 -109.0300 65° Northeast 483 556 37,000  Level FlightAware ADS-B
Tue 04:25:00 PM 40.5780 -108.9020 65° Northeast 483 556 37,000  Level FlightAware ADS-B
Tue 04:25:24 PM 40.5980 -108.8350 69° East 483 556 37,000  Level FlightAware ADS-B
Tue 04:26:22 PM 40.6380 -108.6760 72° East 482 555 37,000  Level FlightAware ADS-B
Tue 04:27:12 PM 40.6710 -108.5350 73° East 483 556 37,000  Level FlightAware ADS-B
Tue 04:27:50 PM 40.6960 -108.4280 73° East 482 555 37,000  Level FlightAware ADS-B
Tue 04:28:34 PM 40.7240 -108.3050 73° East 483 556 37,000  Level FlightAware ADS-B
Tue 04:29:14 PM 40.7500 -108.1900 73° East 485 558 37,000  Level FlightAware ADS-B
Tue 04:29:59 PM 40.7790 -108.0630 73° East 486 559 37,000  Level FlightAware ADS-B
Tue 04:30:34 PM 40.8010 -107.9650 73° East 486 559 37,000  Level FlightAware ADS-B
Tue 04:31:22 PM 40.8310 -107.8270 74° East 486 559 37,000  Level FlightAware ADS-B
Tue 04:32:02 PM 40.8570 -107.7140 73° East 487 560 37,000  Level FlightAware ADS-B
Tue 04:32:46 PM 40.8850 -107.5870 74° East 487 560 37,000  Level FlightAware ADS-B
Tue 04:33:24 PM 40.9080 -107.4820 74° East 487 560 37,000  Level FlightAware ADS-B
Tue 04:34:04 PM 40.9330 -107.3660 74° East 487 560 37,000  Level FlightAware ADS-B
Tue 04:34:51 PM 40.9630 -107.2310 74° East 487 560 37,000  Level FlightAware ADS-B
Tue 04:35:00 PM 40.9680 -107.2090 73° East 487 560 37,000  Level FlightAware ADS-B
Tue 04:36:02 PM 41.0070 -107.0280 74° East 484 557 37,000  Level FlightAware ADS-B
Tue 04:36:50 PM 41.0370 -106.8910 74° East 485 558 37,000  Level FlightAware ADS-B
Tue 04:37:32 PM 41.0620 -106.7740 74° East 486 559 37,000  Level FlightAware ADS-B
Tue 04:38:12 PM 41.0860 -106.6580 75° East 486 559 37,000  Level FlightAware ADS-B
Tue 04:38:58 PM 41.1140 -106.5260 74° East 486 559 37,000  Level FlightAware ADS-B
Tue 04:39:38 PM 41.1380 -106.4130 74° East 485 558 37,000  Level FlightAware ADS-B
Tue 04:40:20 PM 41.1640 -106.2910 74° East 484 557 37,000  Level FlightAware ADS-B
Tue 04:40:58 PM 41.1830 -106.1980 75° East 484 557 37,000  Level FlightAware ADS-B
Tue 04:41:34 PM 41.2080 -106.0790 74° East 482 555 37,000  Level FlightAware ADS-B
Tue 04:42:22 PM 41.2350 -105.9470 75° East 481 554 37,000  Level FlightAware ADS-B
Tue 04:43:03 PM 41.2590 -105.8310 75° East 483 556 37,000  Level FlightAware ADS-B
Tue 04:43:46 PM 41.2850 -105.7010 75° East 483 556 37,000  Level FlightAware ADS-B
Tue 04:44:27 PM 41.3020 -105.6170 75° East 483 556 37,000  Level FlightAware ADS-B
Tue 04:45:08 PM 41.3330 -105.4660 75° East 481 554 37,000  Level FlightAware ADS-B
Tue 04:46:02 PM 41.3630 -105.3160 75° East 480 552 37,000  Level FlightAware ADS-B
Tue 04:46:48 PM 41.3890 -105.1830 75° East 482 555 37,000  Level FlightAware ADS-B
Tue 04:47:15 PM 41.4049 -105.1030 75° East 485 558 37,000  Level FlightAware ADS-B
Tue 04:47:46 PM 41.4222 -105.0150 75° East 486 559 37,000  Level FlightAware ADS-B
Tue 04:48:16 PM 41.4393 -104.9280 75° East 485 558 37,000  Level FlightAware ADS-B
Tue 04:48:49 PM 41.4576 -104.8340 75° East 486 559 37,000  Level FlightAware ADS-B
Tue 04:49:19 PM 41.4746 -104.7460 76° East 484 557 37,000  Level FlightAware ADS-B
Tue 04:49:51 PM 41.4922 -104.6560 75° East 484 557 37,000  Level FlightAware ADS-B
Tue 04:50:21 PM 41.5089 -104.5690 76° East 484 557 37,000  Level FlightAware ADS-B
Tue 04:50:51 PM 41.5256 -104.4820 76° East 484 557 37,000 98 Level FlightAware ADS-B
Tue 04:51:22 PM 41.5424 -104.3930 76° East 483 556 37,100 545 Climbing FlightAware ADS-B
Tue 04:51:57 PM 41.5618 -104.2910 76° East 481 554 37,600 923 Climbing FlightAware ADS-B
Tue 04:52:27 PM 41.5782 -104.2040 76° East 480 552 38,100 787 Climbing FlightAware ADS-B
Tue 04:52:58 PM 41.5945 -104.1170 76° East 480 552 38,400 590 Climbing FlightAware ADS-B
Tue 04:53:28 PM 41.6109 -104.0300 76° East 482 555 38,700 492 Climbing FlightAware ADS-B
Tue 04:53:59 PM 41.6275 -103.9410 76° East 485 558 38,900 295 Climbing FlightAware ADS-B
Tue 04:54:29 PM 41.6436 -103.8540 76° East 485 558 39,000 100 Climbing FlightAware ADS-B
Tue 04:54:59 PM 41.6597 -103.7660 76° East 483 556 39,000  Level FlightAware ADS-B
Tue 04:55:29 PM 41.6758 -103.6790 76° East 482 555 39,000  Level FlightAware ADS-B
Tue 04:55:59 PM 41.6916 -103.5920 76° East 483 556 39,000  Level FlightAware ADS-B
Tue 04:56:36 PM 41.7111 -103.4850 76° East 483 556 39,000  Level FlightAware ADS-B
Tue 04:57:07 PM 41.7268 -103.3980 76° East 483 556 39,000  Level FlightAware ADS-B
Tue 04:57:38 PM 41.7433 -103.3060 76° East 482 555 39,000  Level FlightAware ADS-B
Tue 04:58:10 PM 41.7600 -103.2130 76° East 483 556 39,000  Level FlightAware ADS-B
Tue 04:58:46 PM 41.7787 -103.1080 77° East 484 557 39,000  Level FlightAware ADS-B
Tue 04:59:17 PM 41.7945 -103.0190 77° East 485 558 39,000  Level FlightAware ADS-B
Tue 04:59:51 PM 41.8121 -102.9190 77° East 485 558 39,000  Level FlightAware ADS-B
Tue 05:00:23 PM 41.8283 -102.8270 77° East 486 559 39,000  Level FlightAware ADS-B
Tue 05:00:55 PM 41.8445 -102.7340 77° East 487 560 39,000  Level FlightAware ADS-B
Tue 05:01:25 PM 41.8598 -102.6460 77° East 488 562 39,000  Level FlightAware ADS-B
Tue 05:02:07 PM 41.8814 -102.5200 77° East 488 562 39,000  Level FlightAware ADS-B
Tue 05:02:45 PM 41.9006 -102.4080 77° East 487 560 39,000  Level FlightAware ADS-B
Tue 05:03:19 PM 41.9175 -102.3090 77° East 487 560 39,000  Level FlightAware ADS-B
Tue 05:04:05 PM 41.9404 -102.1740 77° East 486 559 39,000  Level FlightAware ADS-B
Tue 05:04:36 PM 41.9556 -102.0830 77° East 486 559 39,000  Level FlightAware ADS-B
Tue 05:05:08 PM 41.9712 -101.9900 77° East 485 558 39,000  Level FlightAware ADS-B
Tue 05:05:40 PM 41.9869 -101.8960 77° East 484 557 39,000  Level FlightAware ADS-B
Tue 05:06:32 PM 42.0120 -101.7440 77° East 481 554 39,000  Level FlightAware ADS-B
Tue 05:07:03 PM 42.0267 -101.6540 78° East 480 552 39,000  Level FlightAware ADS-B
Tue 05:07:58 PM 42.0527 -101.4940 78° East 477 549 39,000  Level FlightAware ADS-B
Tue 05:08:34 PM 42.0639 -101.4214 78° East 478 550 39,000  Level Minneapolis Center
Tue 05:09:29 PM 42.0928 -101.2458 77° East 471 542 39,000  Level Denver Center
Tue 05:10:30 PM 42.1150 -101.1069 78° East 473 544 39,000  Level Denver Center
Tue 05:11:33 PM 42.1494 -100.8861 78° East 472 543 39,000  Level Denver Center
Tue 05:12:34 PM 42.1756 -100.7197 78° East 472 543 39,000  Level Denver Center
Tue 05:13:36 PM 42.2053 -100.5256 78° East 473 544 39,000  Level Denver Center
Tue 05:14:38 PM 42.2308 -100.3583 78° East 475 547 39,000  Level Denver Center
Tue 05:15:40 PM 42.2558 -100.1908 79° East 475 547 39,000  Level Denver Center
Tue 05:16:42 PM 42.2861 -99.9933 78° East 478 550 39,000  Level Denver Center
Tue 05:17:44 PM 42.3106 -99.8219 79° East 483 556 39,000  Level Denver Center
Tue 05:18:45 PM 42.3378 -99.6353 79° East 479 551 39,000  Level Denver Center
Tue 05:19:47 PM 42.3631 -99.4572 79° East 480 552 39,000  Level Denver Center
Tue 05:21:00 PM 42.3933 -99.2472 79° East 478 550 39,000  Level Minneapolis Center
Tue 05:22:02 PM 42.4186 -99.0706 79° East 477 549 39,000  Level Minneapolis Center
Tue 05:23:04 PM 42.4431 -98.8925 79° East 480 552 39,000  Level Minneapolis Center
Tue 05:24:06 PM 42.4722 -98.6794 79° East 480 552 39,000  Level Minneapolis Center
Tue 05:25:09 PM 42.4817 -98.5008 86° East 476 548 39,000  Level Minneapolis Center
Tue 05:26:11 PM 42.4886 -98.3197 87° East 480 552 39,000  Level Minneapolis Center
Tue 05:32:01 PM 42.5350 -97.2630 87° East 477 549 39,000  Level FlightAware ADS-B
Tue 05:32:40 PM 42.5390 -97.1380 87° East 477 549 39,000  Level FlightAware ADS-B
Tue 05:33:24 PM 42.5440 -97.0070 87° East 477 549 39,000  Level FlightAware ADS-B
Tue 05:34:04 PM 42.5480 -96.8890 87° East 476 548 39,000  Level FlightAware ADS-B
Tue 05:34:47 PM 42.5530 -96.7660 87° East 476 548 39,000  Level FlightAware ADS-B
Tue 05:35:32 PM 42.5570 -96.6290 88° East 476 548 39,000  Level FlightAware ADS-B
Tue 05:36:12 PM 42.5610 -96.5100 87° East 477 549 39,000  Level FlightAware ADS-B
Tue 05:36:52 PM 42.5650 -96.3900 87° East 477 549 39,000  Level FlightAware ADS-B
Tue 05:37:36 PM 42.5690 -96.2610 88° East 477 549 39,000  Level FlightAware ADS-B
Tue 05:38:18 PM 42.5730 -96.1400 87° East 478 550 39,000  Level FlightAware ADS-B
Tue 05:39:00 PM 42.5760 -96.0100 88° East 478 550 39,000  Level FlightAware ADS-B
Tue 05:39:42 PM 42.5800 -95.8810 88° East 479 551 39,000  Level FlightAware ADS-B
Tue 05:40:26 PM 42.5830 -95.7490 88° East 479 551 39,000  Level FlightAware ADS-B
Tue 05:41:06 PM 42.5860 -95.6290 88° East 479 551 39,000  Level FlightAware ADS-B
Tue 05:41:46 PM 42.5890 -95.5120 88° East 479 551 39,000  Level FlightAware ADS-B
Tue 05:42:30 PM 42.5920 -95.3810 88° East 479 551 39,000  Level FlightAware ADS-B
Tue 05:43:14 PM 42.5950 -95.2470 88° East 478 550 39,000  Level FlightAware ADS-B
Tue 05:43:54 PM 42.5970 -95.1260 89° East 479 551 39,000  Level FlightAware ADS-B
Tue 05:44:36 PM 42.6000 -95.0020 88° East 478 550 39,000  Level FlightAware ADS-B
Tue 05:45:16 PM 42.6020 -94.8820 89° East 477 549 39,000  Level FlightAware ADS-B
Tue 05:46:00 PM 42.6040 -94.7540 89° East 476 548 39,000  Level FlightAware ADS-B
Tue 05:46:44 PM 42.6060 -94.6200 89° East 474 545 39,000  Level FlightAware ADS-B
Tue 05:47:20 PM 42.6080 -94.5110 89° East 473 544 39,000  Level FlightAware ADS-B
Tue 05:48:06 PM 42.6100 -94.3760 89° East 472 543 39,000  Level FlightAware ADS-B
Tue 05:48:48 PM 42.6120 -94.2530 89° East 471 542 39,000  Level FlightAware ADS-B
Tue 05:49:32 PM 42.6130 -94.1250 89° East 471 542 39,000  Level FlightAware ADS-B
Tue 05:50:12 PM 42.6140 -94.0040 89° East 470 541 39,000  Level FlightAware ADS-B
Tue 05:51:48 PM 42.6140 -93.9580 90° East 470 541 39,000  Level FlightAware ADS-B
Tue 05:52:28 PM 42.6160 -93.6060 89° East 471 542 39,000  Level FlightAware ADS-B
Tue 05:53:12 PM 42.6160 -93.4780 90° East 471 542 39,000  Level FlightAware ADS-B
Tue 05:53:52 PM 42.6170 -93.3570 89° East 472 543 39,000  Level FlightAware ADS-B
Tue 05:54:30 PM 42.6170 -93.2470 90° East 474 545 39,000  Level FlightAware ADS-B
Tue 05:55:18 PM 42.6170 -93.1090 90° East 475 547 39,000  Level FlightAware ADS-B
Tue 05:55:58 PM 42.6170 -92.9840 90° East 477 549 39,000  Level FlightAware ADS-B
Tue 05:56:41 PM 42.6160 -92.8580 91° East 479 551 39,000  Level FlightAware ADS-B
Tue 05:57:24 PM 42.6160 -92.7290 90° East 481 554 39,000  Level FlightAware ADS-B
Tue 05:58:02 PM 42.6150 -92.6110 91° East 482 555 39,000  Level FlightAware ADS-B
Tue 05:58:46 PM 42.6150 -92.4800 90° East 483 556 39,000  Level FlightAware ADS-B
Tue 05:59:31 PM 42.6140 -92.3430 91° East 485 558 39,000  Level FlightAware ADS-B
Tue 06:00:40 PM 42.6130 -92.2270 91° East 487 560 39,000  Level FlightAware ADS-B
Tue 06:01:21 PM 42.6110 -92.0190 91° East 490 564 39,000  Level FlightAware ADS-B
Tue 06:02:05 PM 42.6090 -91.8760 91° East 493 567 39,000  Level FlightAware ADS-B
Tue 06:02:46 PM 42.6080 -91.7480 91° East 495 570 39,000  Level FlightAware ADS-B
Tue 06:03:26 PM 42.6060 -91.6250 91° East 497 572 39,000  Level FlightAware ADS-B
Tue 06:04:10 PM 42.6040 -91.4860 91° East 499 574 39,000  Level FlightAware ADS-B
Tue 06:04:47 PM 42.6030 -91.3740 91° East 501 577 39,000  Level FlightAware ADS-B
Tue 06:05:44 PM 42.6000 -91.1910 91° East 503 579 39,000  Level FlightAware ADS-B
Tue 06:06:28 PM 42.5970 -91.0540 92° East 506 582 39,000  Level FlightAware ADS-B
Tue 06:07:13 PM 42.5940 -90.9120 92° East 508 585 39,000  Level FlightAware ADS-B
Tue 06:07:53 PM 42.5920 -90.7930 91° East 509 586 39,000  Level FlightAware ADS-B
Tue 06:08:36 PM 42.5890 -90.6480 92° East 509 586 39,000  Level FlightAware ADS-B
Tue 06:09:18 PM 42.5860 -90.5180 92° East 509 586 39,000  Level FlightAware ADS-B
Tue 06:09:59 PM 42.5830 -90.3800 92° East 508 585 39,000  Level FlightAware ADS-B
Tue 06:10:42 PM 42.5790 -90.2430 92° East 506 582 39,000  Level FlightAware ADS-B
Tue 06:11:33 PM 42.5750 -90.0830 92° East 503 579 39,000  Level FlightAware ADS-B
Tue 06:12:14 PM 42.5720 -89.9530 92° East 500 575 39,000  Level FlightAware ADS-B
Tue 06:12:58 PM 42.5680 -89.8150 92° East 496 571 39,000  Level FlightAware ADS-B
Tue 06:13:38 PM 42.5640 -89.6910 92° East 494 568 39,000  Level FlightAware ADS-B
Tue 06:14:34 PM 42.5600 -89.5600 92° East 491 565 39,000  Level FlightAware ADS-B
Tue 06:15:14 PM 42.5550 -89.3980 92° East 488 562 39,000  Level FlightAware ADS-B
Tue 06:15:57 PM 42.5500 -89.2670 93° East 487 560 39,000  Level FlightAware ADS-B
Tue 06:16:42 PM 42.5460 -89.1300 92° East 489 563 39,000  Level FlightAware ADS-B
Tue 06:17:20 PM 42.5410 -89.0140 93° East 492 566 39,000  Level FlightAware ADS-B
Tue 06:18:06 PM 42.5360 -88.8700 93° East 497 572 39,000  Level FlightAware ADS-B
Tue 06:18:47 PM 42.5310 -88.7450 93° East 500 575 39,000  Level FlightAware ADS-B
Tue 06:19:31 PM 42.5260 -88.6060 93° East 505 581 39,000  Level FlightAware ADS-B
Tue 06:20:10 PM 42.5210 -88.4800 93° East 509 586 39,000  Level FlightAware ADS-B
Tue 06:20:52 PM 42.5150 -88.3480 93° East 512 589 39,000  Level FlightAware ADS-B
Tue 06:21:37 PM 42.5090 -88.2090 93° East 514 592 39,000  Level FlightAware ADS-B
Tue 06:22:18 PM 42.5030 -88.0740 93° East 516 594 39,000  Level FlightAware ADS-B
Tue 06:23:00 PM 42.5000 -87.9380 92° East 518 596 39,000  Level FlightAware ADS-B
Tue 06:23:39 PM 42.5000 -87.8140 90° East 518 596 39,000  Level FlightAware ADS-B
Tue 06:24:23 PM 42.5000 -87.6710 90° East 518 596 39,000  Level FlightAware ADS-B
Tue 06:25:02 PM 42.4990 -87.5470 91° East 517 595 39,000  Level FlightAware ADS-B
Tue 06:25:49 PM 42.4990 -87.3920 90° East 517 595 39,000  Level FlightAware ADS-B
Tue 06:26:29 PM 42.4980 -87.2650 91° East 517 595 39,000  Level FlightAware ADS-B
Tue 06:27:12 PM 42.4970 -87.1220 90° East 518 596 39,000  Level FlightAware ADS-B
Tue 06:27:53 PM 42.4960 -86.9910 91° East 518 596 39,000  Level FlightAware ADS-B
Tue 06:28:34 PM 42.4950 -86.8610 91° East 518 596 39,000  Level FlightAware ADS-B
Tue 06:29:18 PM 42.4930 -86.7200 91° East 518 596 39,000  Level FlightAware ADS-B
Tue 06:29:58 PM 42.4920 -86.5890 91° East 517 595 39,000  Level FlightAware ADS-B
Tue 06:30:42 PM 42.4900 -86.4430 91° East 516 594 39,000  Level FlightAware ADS-B
Tue 06:31:20 PM 42.4880 -86.3190 91° East 515 593 39,000  Level FlightAware ADS-B
Tue 06:32:06 PM 42.4860 -86.1710 91° East 514 592 39,000  Level FlightAware ADS-B
Tue 06:32:46 PM 42.4840 -86.0450 91° East 514 592 39,000  Level FlightAware ADS-B
Tue 06:33:24 PM 42.4820 -85.9220 91° East 513 590 39,000  Level FlightAware ADS-B
Tue 06:34:13 PM 42.4790 -85.7670 91° East 512 589 39,000  Level FlightAware ADS-B
Tue 06:34:49 PM 42.4770 -85.6530 91° East 511 588 39,000  Level FlightAware ADS-B
Tue 06:35:35 PM 42.4740 -85.5050 92° East 510 587 39,000  Level FlightAware ADS-B
Tue 06:36:14 PM 42.4710 -85.3810 92° East 509 586 39,000  Level FlightAware ADS-B
Tue 06:36:57 PM 42.4680 -85.2440 92° East 507 583 39,000  Level FlightAware ADS-B
Tue 06:37:40 PM 42.4640 -85.1080 92° East 506 582 39,000  Level FlightAware ADS-B
Tue 06:38:22 PM 42.4610 -84.9760 92° East 505 581 39,000  Level FlightAware ADS-B
Tue 06:39:07 PM 42.4540 -84.8360 94° East 505 581 39,000  Level FlightAware ADS-B
Tue 06:39:47 PM 42.4470 -84.7110 94° East 504 580 39,000  Level FlightAware ADS-B
Tue 06:41:13 PM 42.4390 -84.5780 95° East 504 580 39,000  Level FlightAware ADS-B
Tue 06:41:53 PM 42.4240 -84.3130 94° East 503 579 39,000  Level FlightAware ADS-B
Tue 06:42:36 PM 42.4180 -84.1960 94° East 503 579 39,000  Level FlightAware ADS-B
Tue 06:43:17 PM 42.4090 -84.0530 95° East 503 579 39,000  Level FlightAware ADS-B
Tue 06:44:00 PM 42.4010 -83.9200 95° East 502 578 39,000  Level FlightAware ADS-B
Tue 06:44:41 PM 42.3930 -83.7910 95° East 502 578 39,000  Level FlightAware ADS-B
Tue 06:45:21 PM 42.3850 -83.6660 95° East 501 577 39,000  Level FlightAware ADS-B
Tue 06:46:03 PM 42.3770 -83.5350 95° East 501 577 39,000  Level FlightAware ADS-B
Tue 06:46:45 PM 42.3680 -83.4030 95° East 500 575 39,000  Level FlightAware ADS-B
Tue 06:47:27 PM 42.3610 -83.2950 95° East 500 575 39,000  Level FlightAware ADS-B
Tue 06:48:13 PM 42.3500 -83.1290 95° East 500 575 39,000  Level FlightAware ADS-B
Tue 06:48:53 PM 42.3410 -83.0070 96° East 500 575 39,000  Level FlightAware ADS-B
Tue 06:49:33 PM 42.3330 -82.8830 95° East 500 575 39,000  Level FlightAware ADS-B
Tue 06:50:27 PM 42.3210 -82.7170 96° East 499 574 39,000  Level FlightAware ADS-B
Tue 06:51:15 PM 42.3100 -82.5690 96° East 499 574 39,000  Level FlightAware ADS-B
Tue 06:51:57 PM 42.3000 -82.4360 96° East 500 575 39,000  Level FlightAware ADS-B
Tue 06:52:36 PM 42.2910 -82.3180 96° East 499 574 39,000  Level FlightAware ADS-B
Tue 06:53:17 PM 42.2820 -82.1890 95° East 500 575 39,000  Level FlightAware ADS-B
Tue 06:54:00 PM 42.2710 -82.0580 96° East 499 574 39,000  Level FlightAware ADS-B
Tue 06:54:41 PM 42.2620 -81.9320 95° East 499 574 39,000  Level FlightAware ADS-B
Tue 06:55:24 PM 42.2510 -81.7990 96° East 499 574 39,000  Level FlightAware ADS-B
Tue 06:56:08 PM 42.2400 -81.6600 96° East 499 574 39,000  Level FlightAware ADS-B
Tue 06:56:49 PM 42.2300 -81.5350 96° East 500 575 39,000  Level FlightAware ADS-B
Tue 06:57:29 PM 42.2190 -81.4080 97° East 501 577 39,000  Level FlightAware ADS-B
Tue 06:58:10 PM 42.2080 -81.2810 97° East 501 577 39,000  Level FlightAware ADS-B
Tue 06:58:54 PM 42.1970 -81.1440 96° East 502 578 39,000  Level FlightAware ADS-B
Tue 06:59:38 PM 42.1850 -81.0090 97° East 502 578 39,000  Level FlightAware ADS-B
Tue 07:00:14 PM 42.1750 -80.8950 97° East 503 579 39,000  Level FlightAware ADS-B
Tue 07:00:58 PM 42.1630 -80.7580 97° East 503 579 39,000  Level FlightAware ADS-B
Tue 07:01:36 PM 42.1530 -80.6450 97° East 504 580 39,000  Level FlightAware ADS-B
Tue 07:02:23 PM 42.1410 -80.5160 97° East 504 580 39,000  Level FlightAware ADS-B
Tue 07:03:07 PM 42.1280 -80.3780 97° East 505 581 39,000  Level FlightAware ADS-B
Tue 07:03:46 PM 42.1170 -80.2590 97° East 505 581 39,000  Level FlightAware ADS-B
Tue 07:04:25 PM 42.1050 -80.1350 97° East 506 582 39,000  Level FlightAware ADS-B
Tue 07:05:11 PM 42.0920 -79.9910 97° East 507 583 39,000  Level FlightAware ADS-B
Tue 07:05:56 PM 42.0850 -79.9200 98° East 507 583 39,000  Level FlightAware ADS-B
Tue 07:06:34 PM 42.0650 -79.7240 98° East 507 583 39,000  Level FlightAware ADS-B
Tue 07:07:19 PM 42.0520 -79.5850 97° East 506 582 39,000  Level FlightAware ADS-B
Tue 07:07:54 PM 42.0410 -79.4810 98° East 505 581 39,000  Level FlightAware ADS-B
Tue 07:08:39 PM 42.0260 -79.3280 97° East 505 581 39,000  Level FlightAware ADS-B
Tue 07:09:24 PM 42.0120 -79.1910 98° East 505 581 39,000  Level FlightAware ADS-B
Tue 07:10:04 PM 41.9980 -79.0650 98° East 505 581 39,000  Level FlightAware ADS-B
Tue 07:10:52 PM 41.9820 -78.9110 98° East 506 582 39,000  Level FlightAware ADS-B
Tue 07:11:00 PM 41.9800 -78.8860 96° East 506 582 39,000  Level FlightAware ADS-B
Tue 07:12:04 PM 41.9580 -78.6870 98° East 505 581 39,000  Level FlightAware ADS-B
Tue 07:12:46 PM 41.9440 -78.5560 98° East 503 579 39,000  Level FlightAware ADS-B
Tue 07:13:30 PM 41.9290 -78.4200 98° East 504 580 39,000  Level FlightAware ADS-B
Tue 07:14:10 PM 41.9160 -78.3020 98° East 504 580 39,000  Level FlightAware ADS-B
Tue 07:14:54 PM 41.9000 -78.1610 99° East 502 578 39,000  Level FlightAware ADS-B
Tue 07:15:34 PM 41.8860 -78.0380 99° East 501 577 39,000  Level FlightAware ADS-B
Tue 07:16:20 PM 41.8700 -77.8970 99° East 500 575 39,000  Level FlightAware ADS-B
Tue 07:16:59 PM 41.8470 -77.7840 105° East 497 572 39,000  Level FlightAware ADS-B
Tue 07:17:37 PM 41.8220 -77.6870 109° East 495 570 39,000  Level FlightAware ADS-B
Tue 07:18:20 PM 41.7850 -77.5480 110° East 495 570 39,000  Level FlightAware ADS-B
Tue 07:19:06 PM 41.7500 -77.4180 110° East 494 568 39,000  Level FlightAware ADS-B
Tue 07:19:47 PM 41.7180 -77.2990 110° East 492 566 39,000  Level FlightAware ADS-B
Tue 07:20:23 PM 41.6910 -77.1960 109° East 490 564 39,000  Level FlightAware ADS-B
Tue 07:20:48 PM 41.6711 -77.1235 110° East 491 565 39,000  Level FlightAware ADS-B
Tue 07:21:19 PM 41.6476 -77.0363 110° East 489 563 39,000  Level FlightAware ADS-B
Tue 07:21:51 PM 41.6227 -76.9445 110° East 486 559 39,000  Level FlightAware ADS-B
Tue 07:22:22 PM 41.5996 -76.8596 110° East 485 558 39,000  Level FlightAware ADS-B
Tue 07:22:54 PM 41.5747 -76.7686 110° East 483 556 39,000  Level FlightAware ADS-B
Tue 07:23:28 PM 41.5486 -76.6734 110° East 480 552 39,000  Level FlightAware ADS-B
Tue 07:24:00 PM 41.5247 -76.5865 110° East 478 550 39,000  Level FlightAware ADS-B
Tue 07:24:30 PM 41.5015 -76.5023 110° East 477 549 39,000  Level FlightAware ADS-B
Tue 07:25:01 PM 41.4780 -76.4180 110° East 476 548 39,000  Level FlightAware ADS-B
Tue 07:25:32 PM 41.4544 -76.3328 110° East 475 547 39,000 -98 Level FlightAware ADS-B
Tue 07:26:02 PM 41.4312 -76.2497 110° East 474 545 38,900 -984 Descending FlightAware ADS-B
Tue 07:26:33 PM 41.4076 -76.1655 110° East 475 547 38,000 -2,273 Descending FlightAware ADS-B
Tue 07:27:08 PM 41.3808 -76.0703 111° Southeast 483 556 36,400 -2,818 Descending FlightAware ADS-B
Tue 07:27:39 PM 41.3558 -75.9818 111° Southeast 489 563 34,900 -3,097 Descending FlightAware ADS-B
Tue 07:28:10 PM 41.3313 -75.8949 111° Southeast 497 572 33,200 -3,443 Descending FlightAware ADS-B
Tue 07:28:40 PM 41.3067 -75.8083 111° Southeast 504 580 31,400 -3,541 Descending FlightAware ADS-B
Tue 07:29:11 PM 41.2810 -75.7193 111° Southeast 509 586 29,600 -3,541 Descending FlightAware ADS-B
Tue 07:29:41 PM 41.2533 -75.6306 113° Southeast 512 589 27,800 -3,148 Descending FlightAware ADS-B
Tue 07:30:12 PM 41.2245 -75.5433 114° Southeast 507 583 26,400 -2,667 Descending FlightAware ADS-B
Tue 07:30:44 PM 41.1947 -75.4545 114° Southeast 499 574 25,000 -2,667 Descending FlightAware ADS-B
Tue 07:31:15 PM 41.1650 -75.3663 114° Southeast 494 568 23,600 -1,875 Descending FlightAware ADS-B
Tue 07:31:48 PM 41.1357 -75.2794 114° Southeast 471 542 23,000 -571 Descending FlightAware ADS-B
Tue 07:32:18 PM 41.1100 -75.2030 114° Southeast 436 502 23,000  Level FlightAware ADS-B
Tue 07:32:49 PM 41.0854 -75.1308 114° Southeast 406 467 23,000  Level FlightAware ADS-B
Tue 07:33:21 PM 41.0614 -75.0607 114° Southeast 387 445 23,000  Level FlightAware ADS-B
Tue 07:33:50 PM 41.0402 -74.9989 114° Southeast 380 437 23,000  Level FlightAware ADS-B
Tue 07:34:22 PM 41.0165 -74.9297 114° Southeast 387 445 23,000 -136 Level FlightAware ADS-B
Tue 07:34:34 PM 41.0078 -74.9037 114° Southeast 389 448 22,900 -353 Descending FlightAware ADS-B
Tue 07:34:39 PM 41.0049 -74.8942 112° Southeast 388 447 22,900 -400 Level FlightAware ADS-B
Tue 07:34:49 PM 40.9991 -74.8716 109° East 389 448 22,800 -720 Descending FlightAware ADS-B
Tue 07:35:04 PM 40.9928 -74.8372 104° East 388 447 22,600 -667 Descending FlightAware ADS-B
Tue 07:35:07 PM 40.9916 -74.8283 100° East 388 447 22,600 -1,455 Level FlightAware ADS-B
Tue 07:35:37 PM 40.9838 -74.7576 98° East 389 448 21,800 -1,500 Descending FlightAware ADS-B
Tue 07:35:59 PM 40.9783 -74.7063 98° East 387 445 21,300 -1,313 Descending FlightAware ADS-B
Tue 07:36:09 PM 40.9758 -74.6832 98° East 385 443 21,100 -878 Descending FlightAware ADS-B
Tue 07:36:40 PM 40.9682 -74.6128 98° East 379 436 20,700 -667 Descending FlightAware ADS-B
Tue 07:37:12 PM 40.9601 -74.5394 98° East 377 434 20,400 -476 Descending FlightAware ADS-B
Tue 07:37:43 PM 40.9522 -74.4682 98° East 373 429 20,200 -511 Descending FlightAware ADS-B
Tue 07:37:59 PM 40.9473 -74.4326 100° East 371 427 20,000 -1,077 Descending FlightAware ADS-B
Tue 07:38:22 PM 40.9370 -74.3821 105° East 372 428 19,500 -1,235 Descending FlightAware ADS-B
Tue 07:38:33 PM 40.9310 -74.3602 110° East 371 427 19,300 -698 Descending FlightAware ADS-B
Tue 07:39:05 PM 40.9099 -74.2937 113° Southeast 366 421 19,000 -290 Descending FlightAware ADS-B
Tue 07:39:35 PM 40.8902 -74.2320 113° Southeast 364 419 19,000  Level FlightAware ADS-B
Tue 07:40:06 PM 40.8701 -74.1689 113° Southeast 361 415 19,000  Level FlightAware ADS-B
Tue 07:40:37 PM 40.8502 -74.1059 113° Southeast 360 414 19,000 -984 Level FlightAware ADS-B
Tue 07:41:07 PM 40.8306 -74.0458 113° Southeast 350 403 18,000 -2,160 Descending FlightAware ADS-B
Tue 07:41:27 PM 40.8184 -74.0073 113° Southeast 348 400 17,200 -2,323 Descending FlightAware ADS-B
Tue 07:41:38 PM 40.8118 -73.9861 112° Southeast 345 397 16,800 -2,195 Descending FlightAware ADS-B
Tue 07:42:08 PM 40.7938 -73.9275 112° Southeast 334 384 15,700 -2,066 Descending FlightAware ADS-B
Tue 07:42:39 PM 40.7758 -73.8716 113° Southeast 327 376 14,700 -1,875 Descending FlightAware ADS-B
Tue 07:42:56 PM 40.7654 -73.8408 114° Southeast 325 374 14,200 -1,548 Descending FlightAware ADS-B
Tue 07:43:10 PM 40.7566 -73.8156 115° Southeast 322 371 13,900 -1,304 Descending FlightAware ADS-B
Tue 07:43:42 PM 40.7361 -73.7582 115° Southeast 319 367 13,200 -971 Descending FlightAware ADS-B
Tue 07:44:18 PM 40.7103 -73.7000 120° Southeast 316 364 12,800 -1,108 Descending FlightAware ADS-B
Tue 07:44:47 PM 40.6736 -73.6775 155° Southeast 298 343 12,000 -1,900 Descending FlightAware ADS-B
Tue 07:45:18 PM 40.6334 -73.6635 165° South 292 336 10,900 -2,357 Descending FlightAware ADS-B
Tue 07:45:43 PM 40.6007 -73.6523 165° South 291 335 9,800 -2,550 Descending FlightAware ADS-B
Tue 07:45:58 PM 40.5811 -73.6456 165° South 290 334 9,200 -2,286 Descending FlightAware ADS-B
Tue 07:46:04 PM 40.5736 -73.6441 171° South 287 330 9,000 -2,308 Descending FlightAware ADS-B
Tue 07:46:11 PM 40.5645 -73.6443 181° South 285 328 8,700 -2,727 Descending FlightAware ADS-B
Tue 07:46:15 PM 40.5587 -73.6458 191° South 280 322 8,500 -2,400 Descending FlightAware ADS-B
Tue 07:46:21 PM 40.5520 -73.6486 198° South 278 320 8,300 -2,400 Descending FlightAware ADS-B
Tue 07:46:25 PM 40.5468 -73.6512 201° Southwest 278 320 8,100 -2,526 Descending FlightAware ADS-B
Tue 07:46:40 PM 40.5296 -73.6616 205° Southwest 278 320 7,500 -2,364 Descending FlightAware ADS-B
Tue 07:46:58 PM 40.5094 -73.6749 207° Southwest 279 321 6,800 -2,545 Descending FlightAware ADS-B
Tue 07:47:13 PM 40.4913 -73.6872 207° Southwest 277 319 6,100 -2,438 Descending FlightAware ADS-B
Tue 07:47:30 PM 40.4726 -73.7004 208° Southwest 275 316 5,500 -2,438 Descending FlightAware ADS-B
Tue 07:47:45 PM 40.4556 -73.7126 209° Southwest 276 318 4,800 -2,553 Descending FlightAware ADS-B
Tue 07:48:17 PM 40.4298 -73.7534 230° Southwest 280 322 3,500 -2,250 Descending FlightAware ADS-B
Tue 07:48:33 PM 40.4211 -73.7777 245° Southwest 278 320 3,000 -1,500 Descending FlightAware ADS-B
Tue 07:48:49 PM 40.4123 -73.8020 245° Southwest 265 305 2,700 -878 Descending FlightAware ADS-B
Tue 07:49:14 PM 40.4051 -73.8365 255° West 239 275 2,400 -581 Descending FlightAware ADS-B
Tue 07:49:20 PM 40.4051 -73.8450 270° West 231 266 2,400 -400 Level FlightAware ADS-B
Tue 07:49:29 PM 40.4057 -73.8573 274° West 226 260 2,300 -600 Descending FlightAware ADS-B
Tue 07:49:40 PM 40.4092 -73.8704 289° West 217 250 2,200 -500 Descending FlightAware ADS-B
Tue 07:49:53 PM 40.4190 -73.8823 317° Northwest 205 236 2,100 -140 Descending FlightAware ADS-B
Tue 07:50:23 PM 40.4450 -73.8870 352° North 205 236 2,100  Level FlightAware ADS-B
Tue 07:51:02 PM 40.4810 -73.8800 North 206 237 2,100  Level FlightAware ADS-B
Tue 07:51:30 PM 40.5050 -73.8650 25° Northeast 208 239 2,100  Level FlightAware ADS-B
Tue 07:51:58 PM 40.5280 -73.8460 32° Northeast 194 223 2,100 -414 Level FlightAware ADS-B
Tue 07:52:28 PM 40.5500 -73.8290 30° Northeast 177 204 1,700 -737 Descending FlightAware ADS-B
Tue 07:52:55 PM 40.5680 -73.8160 29° Northeast 154 177 1,400 -764 Descending FlightAware ADS-B
Tue 07:53:23 PM 40.5840 -73.8030 32° Northeast 132 152 1,000 -737 Descending FlightAware ADS-B
Tue 07:53:52 PM 40.5990 -73.7910 31° Northeast 134 154 700 -632 Descending FlightAware ADS-B
Tue 07:54:20 PM 40.6140 -73.7800 29° Northeast 135 155 400 -655 Descending FlightAware ADS-B
Tue 07:54:47 PM 40.6290 -73.7680 31° Northeast 138 159 100 -667 Descending FlightAware ADS-B
Tue 07:55:16 PM 40.6400 -73.7590 32° Northeast 50 58 -207 Descending FlightAware ADS-B
Tue 07:55:32 PM 40.6420 -73.7590 360° North 21 24  Level FlightAware ADS-B
Tue 07:55:58 PM 40.6430 -73.7600 323° Northwest 17 20  Level FlightAware ADS-B

Login

Don't have an account? Register now (free) for customized features, flight alerts, and more!